Time;durP1;ratioP1;P1;durP2;ratioP2;P2;SDS_P1;SDS_P2;PMS_P1;PMS_P2;Temp;Humidity;BMP_temperature;BMP_pressure;BME280_temperature;BME280_humidity;BME280_pressure;Samples;Min_cycle;Max_cycle;Signal;HPM_P1;HPM_P2
2022/07/24 00:02:25;;;;;;;19.52;12.10;;;;;;;;;;4991553;28;20089;-55
2022/07/24 00:04:56;;;;;;;16.10;10.02;;;;;;;;;;4991633;28;20029;-52
2022/07/24 00:07:22;;;;;;;17.88;9.10;;;;;;;;;;4990887;28;20030;-51
2022/07/24 00:09:48;;;;;;;12.10;8.88;;;;;;;;;;4991145;28;20027;-52
2022/07/24 00:12:14;;;;;;;13.68;8.43;;;;;;;;;;4991342;28;20038;-53
2022/07/24 00:14:40;;;;;;;16.13;9.13;;;;;;;;;;4991428;28;20031;-52
2022/07/24 00:17:06;;;;;;;15.57;8.82;;;;;;;;;;4991312;28;20054;-53
2022/07/24 00:19:32;;;;;;;16.13;9.50;;;;;;;;;;4990795;28;20451;-53
2022/07/24 00:21:59;;;;;;;9.20;7.97;;;;;;;;;;4945368;28;1345584;-51
2022/07/24 00:24:26;;;;;;;15.65;8.82;;;;;;;;;;4991842;28;20028;-52
2022/07/24 00:26:52;;;;;;;14.57;8.70;;;;;;;;;;4991719;28;20026;-52
2022/07/24 00:29:18;;;;;;;13.75;9.27;;;;;;;;;;4990640;28;20399;-55
2022/07/24 00:31:44;;;;;;;13.00;9.43;;;;;;;;;;4991846;28;20117;-54
2022/07/24 00:34:10;;;;;;;19.58;9.43;;;;;;;;;;4991819;28;20558;-52
2022/07/24 00:36:36;;;;;;;14.75;8.77;;;;;;;;;;4991336;28;20379;-54
2022/07/24 00:39:02;;;;;;;13.63;9.25;;;;;;;;;;4990473;28;20491;-52
2022/07/24 00:41:28;;;;;;;15.60;8.98;;;;;;;;;;4990905;28;20054;-54
2022/07/24 00:44:08;;;;;;;13.77;9.02;;;;;;;;;;4990698;28;20018;-54
2022/07/24 00:46:34;;;;;;;13.18;11.18;;;;;;;;;;4989930;28;20509;-52
2022/07/24 00:49:01;;;;;;;14.00;11.10;;;;;;;;;;4994896;28;20463;-53
2022/07/24 00:51:27;;;;;;;18.02;11.70;;;;;;;;;;4995207;28;20109;-55
2022/07/24 00:53:53;;;;;;;20.50;11.50;;;;;;;;;;4995798;28;20082;-51
2022/07/24 00:56:20;;;;;;;20.25;12.20;;;;;;;;;;4995254;28;20038;-53
2022/07/24 00:58:46;;;;;;;14.27;11.43;;;;;;;;;;4995416;28;20038;-51
2022/07/24 01:01:12;;;;;;;16.73;12.20;;;;;;;;;;4995171;28;20026;-52
2022/07/24 01:03:39;;;;;;;17.90;11.60;;;;;;;;;;4995474;28;20032;-52
2022/07/24 01:06:06;;;;;;;18.63;10.75;;;;;;;;;;4995267;28;20391;-52
2022/07/24 01:08:32;;;;;;;17.48;12.13;;;;;;;;;;4994972;28;20388;-52
2022/07/24 01:10:58;;;;;;;14.93;12.00;;;;;;;;;;4995064;28;20515;-52
2022/07/24 01:13:24;;;;;;;20.23;13.25;;;;;;;;;;4995341;28;20419;-51
2022/07/24 01:15:50;;;;;;;17.90;14.20;;;;;;;;;;4994907;28;20039;-53
2022/07/24 01:18:17;;;;;;;17.58;14.23;;;;;;;;;;4995367;28;20033;-52
2022/07/24 01:20:43;;;;;;;;;;;;;;;;;;4995077;28;20541;-51
2022/07/24 01:23:09;;;;;;;19.42;12.68;;;;;;;;;;4993617;28;19909;-52
2022/07/24 01:25:35;;;;;;;19.67;12.80;;;;;;;;;;4993442;28;20121;-52
2022/07/24 01:28:01;;;;;;;14.52;13.00;;;;;;;;;;4979181;28;20031;-51
2022/07/24 01:30:27;;;;;;;17.13;13.95;;;;;;;;;;4994343;28;20030;-51
2022/07/24 01:32:53;;;;;;;15.13;11.63;;;;;;;;;;4994684;28;20027;-54
2022/07/24 01:35:19;;;;;;;15.13;12.10;;;;;;;;;;4994531;28;20037;-52
2022/07/24 01:37:45;;;;;;;15.93;12.38;;;;;;;;;;4992920;28;20085;-52
2022/07/24 01:40:11;;;;;;;15.95;11.02;;;;;;;;;;4994152;28;20102;-55
2022/07/24 01:42:38;;;;;;;17.80;12.45;;;;;;;;;;4994294;28;20041;-52
2022/07/24 01:45:04;;;;;;;19.92;13.50;;;;;;;;;;4994011;28;20058;-52
2022/07/24 01:47:30;;;;;;;18.77;13.68;;;;;;;;;;4994327;28;20027;-52
2022/07/24 01:49:56;;;;;;;16.73;12.90;;;;;;;;;;4994148;28;20435;-52
2022/07/24 01:52:25;;;;;;;19.30;13.38;;;;;;;;;;4994240;28;20034;-52
2022/07/24 01:54:51;;;;;;;21.75;14.43;;;;;;;;;;4994354;28;20477;-53
2022/07/24 01:57:17;;;;;;;18.83;15.60;;;;;;;;;;4994104;28;20046;-52
2022/07/24 01:59:43;;;;;;;20.10;16.38;;;;;;;;;;4992592;28;20030;-52
2022/07/24 02:02:09;;;;;;;19.25;15.07;;;;;;;;;;4993440;28;20089;-53
2022/07/24 02:04:35;;;;;;;18.02;15.07;;;;;;;;;;4993965;28;20555;-53
2022/07/24 02:07:01;;;;;;;23.35;15.10;;;;;;;;;;4993853;28;20027;-52
2022/07/24 02:09:27;;;;;;;16.45;12.88;;;;;;;;;;4992659;28;20062;-52
2022/07/24 02:11:53;;;;;;;16.25;13.48;;;;;;;;;;4992518;28;20026;-54
2022/07/24 02:14:19;;;;;;;17.83;12.55;;;;;;;;;;4993962;28;20129;-53
2022/07/24 02:16:45;;;;;;;17.40;12.27;;;28.00;57.70;;;;;;4994014;28;20496;-54
2022/07/24 02:19:11;;;;;;;17.13;12.75;;;29.40;62.30;;;;;;4993517;28;20029;-55
2022/07/24 02:21:37;;;;;;;16.92;13.32;;;29.00;61.90;;;;;;4992225;28;20026;-51
2022/07/24 02:24:04;;;;;;;18.10;14.53;;;28.90;61.70;;;;;;4993656;28;20403;-51
2022/07/24 02:26:30;;;;;;;18.38;12.98;;;28.90;61.80;;;;;;4993548;28;20026;-52
2022/07/24 02:28:56;;;;;;;21.67;12.82;;;;;;;;;;4993802;28;20033;-51
2022/07/24 02:31:22;;;;;;;18.98;13.07;;;;;;;;;;4993612;28;20034;-52
2022/07/24 02:33:48;;;;;;;25.33;14.60;;;;;;;;;;4993124;28;20073;-52
2022/07/24 02:36:14;;;;;;;18.33;13.65;;;;;;;;;;4992301;28;20034;-53
2022/07/24 02:38:41;;;;;;;23.17;12.48;;;;;;;;;;4992148;28;20034;-51
2022/07/24 02:41:07;;;;;;;;;;;;;;;;;;4993743;28;20030;-52
2022/07/24 02:43:33;;;;;;;17.85;11.88;;;;;;;;;;4993660;28;19910;-51
2022/07/24 02:45:59;;;;;;;28.92;12.90;;;;;;;;;;4993164;28;20026;-53
2022/07/24 02:48:25;;;;;;;16.77;13.85;;;;;;;;;;4991900;28;20447;-51
2022/07/24 02:50:51;;;;;;;17.25;13.18;;;;;;;;;;4992703;28;20030;-52
2022/07/24 02:53:17;;;;;;;22.20;13.90;;;;;;;;;;4992458;28;20410;-51
2022/07/24 02:55:44;;;;;;;18.23;12.73;;;;;;;;;;4992095;28;20023;-51
2022/07/24 02:58:10;;;;;;;17.92;12.43;;;;;;;;;;4992635;28;20083;-51
2022/07/24 03:00:36;;;;;;;20.33;13.80;;;;;;;;;;4991547;28;20022;-51
2022/07/24 03:03:02;;;;;;;14.68;12.48;;;;;;;;;;4991789;28;20202;-52
2022/07/24 03:05:28;;;;;;;14.93;11.48;;;;;;;;;;4993132;28;20186;-51
2022/07/24 03:07:54;;;;;;;19.52;11.68;;;;;;;;;;4992989;28;20034;-51
2022/07/24 03:10:20;;;;;;;18.48;14.35;;;;;;;;;;4992504;28;20074;-52
2022/07/24 03:12:46;;;;;;;23.27;12.80;;;;;;;;;;4993163;28;20041;-51
2022/07/24 03:15:13;;;;;;;19.58;12.90;;;;;;;;;;4989167;28;20037;-52
2022/07/24 03:17:39;;;;;;;21.10;11.95;;;;;;;;;;4987183;28;20030;-52
2022/07/24 03:20:06;;;;;;;19.25;11.63;;;;;;;;;;4992416;28;20026;-52
2022/07/24 03:22:32;;;;;;;17.73;11.30;;;;;;;;;;4992545;28;20542;-53
2022/07/24 03:24:58;;;;;;;14.35;11.18;;;;;;;;;;4989356;28;20023;-51
2022/07/24 03:27:24;;;;;;;14.90;10.43;;;;;;;;;;4990027;28;20019;-51
2022/07/24 03:29:50;;;;;;;11.27;9.38;;;;;;;;;;4986348;28;20029;-51
2022/07/24 03:32:16;;;;;;;19.02;8.93;;;;;;;;;;4978426;28;20113;-51
2022/07/24 03:34:42;;;;;;;9.80;7.78;;;;;;;;;;4991480;28;20033;-52
2022/07/24 03:37:08;;;;;;;11.70;7.55;;;;;;;;;;4992618;28;20073;-53
2022/07/24 03:39:34;;;;;;;8.52;6.97;;;;;;;;;;4991563;28;20033;-52
2022/07/24 03:42:00;;;;;;;16.92;6.32;;;;;;;;;;4991970;28;20099;-51
2022/07/24 03:44:26;;;;;;;11.13;7.05;;;;;;;;;;4992650;28;20527;-51
2022/07/24 03:46:52;;;;;;;12.63;5.95;;;;;;;;;;4992084;28;20027;-52
2022/07/24 03:49:18;;;;;;;8.57;5.57;;;;;;;;;;4992340;28;20081;-52
2022/07/24 03:51:44;;;;;;;8.40;6.55;;;;;;;;;;4991974;28;20062;-52
2022/07/24 03:54:10;;;;;;;10.13;5.55;;;;;;;;;;4991984;28;20088;-51
2022/07/24 03:56:36;;;;;;;9.15;6.45;;;;;;;;;;4992330;28;20137;-51
2022/07/24 03:59:02;;;;;;;8.02;5.85;;;;;;;;;;4992251;28;20030;-51
2022/07/24 04:01:29;;;;;;;10.43;5.90;;;;;;;;;;4995426;28;20030;-51
2022/07/24 04:03:55;;;;;;;9.15;5.47;;;;;;;;;;4992280;28;20027;-51
2022/07/24 04:06:21;;;;;;;11.27;6.53;;;;;;;;;;4991764;28;20084;-51
2022/07/24 04:08:47;;;;;;;6.13;5.40;;;;;;;;;;4991668;28;20034;-52
2022/07/24 04:11:13;;;;;;;8.77;6.00;;;28.70;61.90;;;;;;4991806;28;20023;-52
2022/07/24 04:13:39;;;;;;;8.50;5.90;;;;;;;;;;4992482;28;20112;-52
2022/07/24 04:16:05;;;;;;;15.10;6.35;;;;;;;;;;4989713;28;20123;-53
2022/07/24 04:18:31;;;;;;;18.90;7.03;;;;;;;;;;4991489;28;20033;-52
2022/07/24 04:20:57;;;;;;;11.10;6.25;;;;;;;;;;4991849;28;20038;-51
2022/07/24 04:23:23;;;;;;;13.75;6.93;;;;;;;;;;4994721;28;20022;-51
2022/07/24 04:25:49;;;;;;;12.15;7.07;;;;;;;;;;4995902;28;20060;-53
2022/07/24 04:28:16;;;;;;;15.07;6.60;;;;;;;;;;4995769;28;20027;-51
2022/07/24 04:30:42;;;;;;;;;;;;;;;;;;4996079;28;20042;-53
2022/07/24 04:33:08;;;;;;;16.73;6.97;;;;;;;;;;4995817;28;19964;-51
2022/07/24 04:35:34;;;;;;;17.73;5.78;;;;;;;;;;4994251;28;20027;-53
2022/07/24 04:38:00;;;;;;;12.38;5.30;;;;;;;;;;4995954;28;20035;-51
2022/07/24 04:40:26;;;;;;;8.65;5.70;;;;;;;;;;4995485;28;20042;-53
2022/07/24 04:42:52;;;;;;;14.73;6.50;;;;;;;;;;4995837;28;20022;-56
2022/07/24 04:45:18;;;;;;;12.80;6.32;;;;;;;;;;4996013;28;20022;-52
2022/07/24 04:47:44;;;;;;;17.75;6.38;;;;;;;;;;4995702;28;20054;-53
2022/07/24 04:50:11;;;;;;;16.00;6.70;;;;;;;;;;4994137;28;20504;-51
2022/07/24 04:52:37;;;;;;;9.18;6.20;;;;;;;;;;4994359;28;20046;-51
2022/07/24 04:55:03;;;;;;;12.88;5.68;;;;;;;;;;4995831;28;20030;-50
2022/07/24 04:57:29;;;;;;;12.40;5.22;;;;;;;;;;4995686;28;20030;-51
2022/07/24 04:59:55;;;;;;;9.63;5.85;;;;;;;;;;4995109;28;20041;-52
2022/07/24 05:02:21;;;;;;;16.83;6.90;;;27.80;58.70;;;;;;4995490;28;20031;-52
2022/07/24 05:04:46;;;;;;;10.80;5.70;;;28.20;57.60;;;;;;4994175;28;20019;-52
2022/07/24 05:07:12;;;;;;;12.97;5.67;;;;;;;;;;4995251;28;20566;-51
2022/07/24 05:09:38;;;;;;;16.70;5.20;;;;;;;;;;4995140;28;20082;-51
2022/07/24 05:12:05;;;;;;;9.50;5.05;;;;;;;;;;4995171;28;20036;-51
2022/07/24 05:14:31;;;;;;;13.57;6.07;;;;;;;;;;4995510;28;20072;-53
2022/07/24 05:16:57;;;;;;;12.75;6.57;;;;;;;;;;4995235;28;20034;-53
2022/07/24 05:19:23;;;;;;;7.03;4.85;;;;;;;;;;4994967;28;20072;-54
2022/07/24 05:21:49;;;;;;;9.30;5.43;;;;;;;;;;5017482;22;20566;-54
2022/07/24 05:24:15;;;;;;;10.32;4.82;;;;;;;;;;5014613;28;20533;-53
2022/07/24 05:26:41;;;;;;;8.93;5.82;;;;;;;;;;5014774;28;20391;-54
2022/07/24 05:29:07;;;;;;;8.93;5.07;;;;;;;;;;5014198;28;20084;-53
2022/07/24 05:31:33;;;;;;;8.30;5.00;;;;;;;;;;4987899;28;20396;-57
2022/07/24 05:34:01;;;;;;;8.70;5.18;;;;;;;;;;4993436;28;20117;-52
2022/07/24 05:36:27;;;;;;;10.82;5.90;;;28.20;58.00;;;;;;4994734;28;20078;-54
2022/07/24 05:38:54;;;;;;;6.57;4.07;;;;;;;;;;4994041;28;20117;-52
2022/07/24 05:41:20;;;;;;;9.93;6.20;;;;;;;;;;4993756;28;20038;-55
2022/07/24 05:43:46;;;;;;;8.32;4.95;;;;;;;;;;4994372;28;20033;-52
2022/07/24 05:46:12;;;;;;;7.45;4.40;;;;;;;;;;4994061;28;20022;-57
2022/07/24 05:48:38;;;;;;;8.40;4.97;;;;;;;;;;4993865;28;20049;-56
2022/07/24 05:51:04;;;;;;;9.73;4.63;;;;;;;;;;4993974;28;20089;-56
2022/07/24 05:53:30;;;;;;;6.18;4.80;;;;;;;;;;4993979;28;20040;-54
2022/07/24 05:55:56;;;;;;;7.07;4.13;;;;;;;;;;4994174;28;20062;-56
2022/07/24 05:58:22;;;;;;;8.40;4.30;;;;;;;;;;4993328;28;20034;-53
2022/07/24 06:00:49;;;;;;;6.72;4.22;;;;;;;;;;4994013;28;20076;-57
2022/07/24 06:03:15;;;;;;;8.98;4.30;;;;;;;;;;4994250;28;20027;-53
2022/07/24 06:05:41;;;;;;;10.30;5.55;;;;;;;;;;4994336;28;20438;-53
2022/07/24 06:08:08;;;;;;;7.18;4.05;;;;;;;;;;4992905;28;20483;-56
2022/07/24 06:10:34;;;;;;;4.70;4.20;;;;;;;;;;4992526;28;20030;-53
2022/07/24 06:13:01;;;;;;;9.00;4.40;;;;;;;;;;4992493;28;20069;-56
2022/07/24 06:15:27;;;;;;;6.07;4.68;;;;;;;;;;4994138;28;20084;-57
2022/07/24 06:17:53;;;;;;;7.07;4.63;;;;;;;;;;4992700;28;20030;-53
2022/07/24 06:20:19;;;;;;;9.82;4.57;;;;;;;;;;4993191;28;20049;-53
2022/07/24 06:22:45;;;;;;;8.45;4.88;;;;;;;;;;4984875;28;20376;-57
2022/07/24 06:25:12;;;;;;;7.63;4.53;;;;;;;;;;4994116;28;20023;-54
2022/07/24 06:27:45;;;;;;;5.20;4.70;;;;;;;;;;4987312;28;20377;-54
2022/07/24 06:30:15;;;;;;;8.35;4.95;;;;;;;;;;4991210;28;20018;-58
2022/07/24 06:32:41;;;;;;;7.10;5.40;;;;;;;;;;4993751;28;20034;-58
2022/07/24 06:35:07;;;;;;;8.73;4.78;;;;;;;;;;4987312;28;20023;-56
2022/07/24 06:37:34;;;;;;;7.43;4.70;;;;;;;;;;4983411;28;20101;-53
2022/07/24 06:40:00;;;;;;;11.68;4.85;;;;;;;;;;4974294;28;20435;-58
2022/07/24 06:42:26;;;;;;;6.88;5.05;;;;;;;;;;4974487;28;20486;-57
2022/07/24 06:44:52;;;;;;;10.00;4.53;;;;;;;;;;4985843;28;20553;-54
2022/07/24 06:47:18;;;;;;;7.47;4.55;;;;;;;;;;4988242;28;20578;-55
2022/07/24 06:49:44;;;;;;;14.60;4.85;;;;;;;;;;4989160;28;20678;-52
2022/07/24 06:52:10;;;;;;;8.93;4.70;;;;;;;;;;4979624;28;20077;-52
2022/07/24 06:54:36;;;;;;;9.82;5.05;;;;;;;;;;4993432;28;20022;-53
2022/07/24 06:57:02;;;;;;;18.40;5.38;;;;;;;;;;4993601;28;20080;-52
2022/07/24 06:59:28;;;;;;;8.43;4.43;;;;;;;;;;4992786;28;20026;-50
2022/07/24 07:01:55;;;;;;;9.50;5.70;;;;;;;;;;4989455;28;20026;-48
2022/07/24 07:04:21;;;;;;;9.38;5.15;;;;;;;;;;4993286;28;20019;-48
2022/07/24 07:06:48;;;;;;;10.35;4.60;;;;;;;;;;4993289;28;20030;-48
2022/07/24 07:09:14;;;;;;;9.25;5.35;;;;;;;;;;4986476;28;20123;-48
2022/07/24 07:11:40;;;;;;;8.00;5.10;;;;;;;;;;4977222;28;20037;-48
2022/07/24 07:14:06;;;;;;;6.60;5.32;;;;;;;;;;4992724;28;20026;-48
2022/07/24 07:16:32;;;;;;;5.78;4.38;;;;;;;;;;4985402;28;20022;-48
2022/07/24 07:18:58;;;;;;;10.38;4.35;;;;;;;;;;4973594;28;20034;-49
2022/07/24 07:21:24;;;;;;;11.05;5.35;;;;;;;;;;4983333;28;20030;-48
2022/07/24 07:23:50;;;;;;;7.55;4.72;;;;;;;;;;4991881;28;20045;-46
2022/07/24 07:26:16;;;;;;;;;;;;;;;;;;4993492;28;20034;-47
2022/07/24 07:28:42;;;;;;;8.20;4.55;;;;;;;;;;4992888;28;19905;-47
2022/07/24 07:31:08;;;;;;;9.38;4.60;;;;;;;;;;4984389;28;20126;-47
2022/07/24 07:33:34;;;;;;;6.03;4.90;;;;;;;;;;4973402;28;20460;-47
2022/07/24 07:36:01;;;;;;;6.60;4.07;;;;;;;;;;4987766;28;20394;-47
2022/07/24 07:38:27;;;;;;;5.85;4.45;;;;;;;;;;4992738;28;20110;-47
2022/07/24 07:40:53;;;;;;;6.95;5.72;;;;;;;;;;4992227;28;20026;-47
2022/07/24 07:43:19;;;;;;;5.22;4.03;;;;;;;;;;4991463;28;20052;-47
2022/07/24 07:45:45;;;;;;;6.32;4.47;;;;;;;;;;4973362;28;20058;-47
2022/07/24 07:48:11;;;;;;;5.35;4.28;;;;;;;;;;4980156;28;20030;-47
2022/07/24 07:50:37;;;;;;;7.10;4.10;;;;;;;;;;4992146;28;20491;-48
2022/07/24 07:53:03;;;;;;;4.28;3.50;;;;;;;;;;4992692;28;20109;-47
2022/07/24 07:55:29;;;;;;;6.00;4.00;;;;;;;;;;4988058;28;20427;-47
2022/07/24 07:57:55;;;;;;;5.45;4.65;;;;;;;;;;4991355;28;20093;-47
2022/07/24 08:00:21;;;;;;;16.23;4.22;;;;;;;;;;4994205;28;20037;-48
2022/07/24 08:02:47;;;;;;;5.28;3.47;;;;;;;;;;5001006;28;20022;-47
2022/07/24 08:05:13;;;;;;;3.75;3.40;;;;;;;;;;4989006;28;20015;-47
2022/07/24 08:07:40;;;;;;;6.75;3.15;;;;;;;;;;4975650;28;20058;-48
2022/07/24 08:10:06;;;;;;;6.30;3.92;;;;;;;;;;4972751;28;20027;-48
2022/07/24 08:12:32;;;;;;;4.13;3.75;;;;;;;;;;4972938;28;20037;-48
2022/07/24 08:14:58;;;;;;;4.40;3.80;;;;;;;;;;4972843;28;20030;-48
2022/07/24 08:17:24;;;;;;;12.23;3.90;;;;;;;;;;4982378;28;20521;-48
2022/07/24 08:19:50;;;;;;;4.13;3.35;;;;;;;;;;4992109;28;20064;-50
2022/07/24 08:22:16;;;;;;;5.47;3.75;;;;;;;;;;4992149;28;20063;-48
2022/07/24 08:24:42;;;;;;;5.30;4.18;;;;;;;;;;4992290;28;20023;-48
2022/07/24 08:27:08;;;;;;;5.57;4.00;;;;;;;;;;4991051;28;20121;-48
2022/07/24 08:29:35;;;;;;;6.30;4.65;;;;;;;;;;4975454;28;20522;-51
2022/07/24 08:32:01;;;;;;;4.28;3.47;;;;;;;;;;4991061;28;20399;-48
2022/07/24 08:34:27;;;;;;;4.25;3.10;;;;;;;;;;4990297;28;20062;-48
2022/07/24 08:36:53;;;;;;;7.00;4.28;;;;;;;;;;4982028;28;20022;-48
2022/07/24 08:39:19;;;;;;;3.47;3.17;;;;;;;;;;4991137;28;20030;-54
2022/07/24 08:41:45;;;;;;;5.43;3.78;;;;;;;;;;4991898;28;20034;-52
2022/07/24 08:44:12;;;;;;;7.25;3.90;;;;;;;;;;4992123;28;20033;-53
2022/07/24 08:46:38;;;;;;;;;;;;;;;;;;4992592;28;20183;-51
2022/07/24 08:49:07;;;;;;;3.20;2.90;;;;;;;;;;4991643;28;20370;-52
2022/07/24 08:51:33;;;;;;;5.10;3.75;;;;;;;;;;4990658;28;20030;-52
2022/07/24 08:53:59;;;;;;;6.00;3.70;;;;;;;;;;4991951;28;20030;-53
2022/07/24 08:56:26;;;;;;;6.32;3.97;;;;;;;;;;4992466;28;20088;-52
2022/07/24 08:58:52;;;;;;;5.03;3.60;;;;;;;;;;4991735;28;20118;-52
2022/07/24 09:01:18;;;;;;;4.88;3.30;;;;;;;;;;4991749;28;20438;-53
2022/07/24 09:03:45;;;;;;;6.93;3.85;;;;;;;;;;4990941;28;20450;-53
2022/07/24 09:06:12;;;;;;;5.55;3.42;;;;;;;;;;4991896;28;20018;-51
2022/07/24 09:08:40;;;;;;;5.80;3.45;;;;;;;;;;4993224;28;20026;-52
2022/07/24 09:11:06;;;;;;;7.05;3.33;;;;;;;;;;4994045;28;20502;-52
2022/07/24 09:16:22;;;;;;;12.93;3.97;;;;;;;;;;4995685;28;20061;-52
2022/07/24 09:18:50;;;;;;;3.72;3.20;;;;;;;;;;4995282;28;20038;-56
2022/07/24 09:21:17;;;;;;;4.20;2.75;;;;;;;;;;4993687;28;20030;-52
2022/07/24 09:23:44;;;;;;;7.72;2.97;;;;;;;;;;4995157;28;20485;-52
2022/07/24 09:26:11;;;;;;;7.63;3.35;;;;;;;;;;4995168;28;20509;-52
2022/07/24 09:28:47;;;;;;;4.30;3.28;;;;;;;;;;4995148;28;20031;-52
2022/07/24 09:31:13;;;;;;;4.82;3.42;;;;;;;;;;4995110;28;20053;-52
2022/07/24 09:33:39;;;;;;;3.63;3.00;;;;;;;;;;4995032;28;20037;-51
2022/07/24 09:36:12;;;;;;;4.82;3.08;;;;;;;;;;4995036;28;20434;-52
2022/07/24 09:38:38;;;;;;;4.47;3.20;;;;;;;;;;4995060;28;20541;-52
2022/07/24 09:41:05;;;;;;;8.27;3.10;;;;;;;;;;4994975;28;20030;-52
2022/07/24 09:43:31;;;;;;;3.40;2.85;;;;;;;;;;4994877;28;20113;-51
2022/07/24 09:46:00;;;;;;;4.40;2.90;;;;;;;;;;4993598;28;20022;-52
2022/07/24 09:48:30;;;;;;;5.35;3.38;;;;;;;;;;4993369;28;20506;-55
2022/07/24 09:50:58;;;;;;;5.43;3.80;;;;;;;;;;4994637;28;20026;-51
2022/07/24 09:53:29;;;;;;;6.72;3.08;;;;;;;;;;4994770;28;20037;-54
2022/07/24 09:55:58;;;;;;;4.00;3.42;;;;;;;;;;4994745;28;20027;-52
2022/07/24 09:58:25;;;;;;;5.43;3.53;;;;;;;;;;4994445;28;20031;-53
2022/07/24 10:00:53;;;;;;;7.18;3.80;;;;;;;;;;4994874;28;20031;-51
2022/07/24 10:03:22;;;;;;;7.60;2.92;;;;;;;;;;4994553;28;20027;-52
2022/07/24 10:05:53;;;;;;;4.10;3.10;;;;;;;;;;4994221;28;20026;-55
2022/07/24 10:08:19;;;;;;;5.57;3.08;;;;;;;;;;4994590;28;20077;-52
2022/07/24 10:10:46;;;;;;;3.38;3.13;;;;;;;;;;4994259;28;20099;-52
2022/07/24 10:13:12;;;;;;;3.30;3.00;;;;;;;;;;4994463;28;20113;-53
2022/07/24 10:15:56;;;;;;;4.72;2.67;;;;;;;;;;4994376;28;20106;-54
2022/07/24 10:18:26;;;;;;;5.47;3.90;;;;;;;;;;4994439;28;20085;-55
2022/07/24 10:20:54;;;;;;;5.35;3.22;;;;;;;;;;4993362;28;20026;-55
2022/07/24 10:23:28;;;;;;;4.80;3.17;;;;;;;;;;4994128;28;20027;-54
2022/07/24 10:26:05;;;;;;;4.55;3.45;;;;;;;;;;4987463;28;20026;-51
2022/07/24 10:28:31;;;;;;;;;;;;;;;;;;4992709;28;20026;-52
2022/07/24 10:30:57;;;;;;;4.95;3.20;;;;;;;;;;4994068;28;19910;-54
2022/07/24 10:33:23;;;;;;;6.38;3.40;;;;;;;;;;4993950;28;20023;-54
2022/07/24 10:35:50;;;;;;;3.70;2.92;;;;;;;;;;4993937;28;20113;-53
2022/07/24 10:38:16;;;;;;;;;;;;;;;;;;4994484;28;20037;-55
2022/07/24 10:40:46;;;;;;;3.53;2.92;;;;;;;;;;4993574;28;19909;-56
2022/07/24 10:43:14;;;;;;;6.32;2.97;;;;;;;;;;4993323;28;20061;-53
2022/07/24 10:45:43;;;;;;;6.93;2.67;;;;;;;;;;4993534;28;20481;-53
2022/07/24 10:48:22;;;;;;;6.47;3.63;;;;;;;;;;4992027;28;20201;-54
2022/07/24 10:51:07;;;;;;;4.18;2.80;;;;;;;;;;4993514;28;20026;-57
2022/07/24 10:53:37;;;;;;;4.53;3.05;;;;;;;;;;4991992;28;20062;-52
2022/07/24 10:56:15;;;;;;;4.00;2.70;;;;;;;;;;4987135;28;20026;-50
2022/07/24 10:58:53;;;;;;;11.95;10.60;;;;;;;;;;4993488;28;20600;-52
2022/07/24 11:01:39;;;;;;;31.48;28.40;;;;;;;;;;4993255;28;20029;-55
2022/07/24 11:04:23;;;;;;;9.23;3.60;;;;;;;;;;4993028;28;20026;-57
2022/07/24 11:06:51;;;;;;;5.25;2.75;;;;;;;;;;4992845;28;20026;-57
2022/07/24 11:09:18;;;;;;;3.88;2.92;;;;;;;;;;4991067;28;20028;-54
2022/07/24 11:11:54;;;;;;;4.00;2.80;;;;;;;;;;4992645;28;20033;-57
2022/07/24 11:14:23;;;;;;;3.25;2.70;;;;;;;;;;4993124;28;20404;-59
2022/07/24 11:16:50;;;;;;;3.20;2.90;;;;;;;;;;4992858;28;20065;-58
2022/07/24 11:19:16;;;;;;;5.00;3.28;;;;;;;;;;4992685;28;20396;-58
2022/07/24 11:21:44;;;;;;;3.50;3.05;;;;;;;;;;5010639;22;20042;-57
2022/07/24 11:24:16;;;;;;;4.05;2.80;;;;;;;;;;5011944;28;20112;-58
2022/07/24 11:26:49;;;;;;;3.17;2.88;;;;;;;;;;5012209;28;20050;-57
2022/07/24 11:29:15;;;;;;;4.40;3.28;;;;;;;;;;5011782;28;20014;-55
2022/07/24 11:31:41;;;;;;;;;;;;;;;;;;5009823;28;20038;-56
2022/07/24 11:34:09;;;;;;;6.78;3.13;;;;;;;;;;4999458;28;19941;-57
2022/07/24 11:36:35;;;;;;;3.95;3.05;;;;;;;;;;4972253;28;20027;-55
2022/07/24 11:39:03;;;;;;;4.20;3.05;;;;;;;;;;4989398;28;20430;-55
2022/07/24 11:41:44;;;;;;;7.93;3.20;;;;;;;;;;4975102;28;20047;-56
2022/07/24 11:44:11;;;;;;;7.53;3.22;;;;;;;;;;4991868;28;20022;-58
2022/07/24 11:46:39;;;;;;;8.35;3.50;;;;;;;;;;5001212;28;20019;-57
2022/07/24 11:49:06;;;;;;;2.88;2.67;;;;;;;;;;5000378;28;20014;-59
2022/07/24 11:51:33;;;;;;;3.53;3.08;;;;;;;;;;4998001;28;20045;-56
2022/07/24 11:54:01;;;;;;;5.65;3.45;;;;;;;;;;4997827;28;20125;-57
2022/07/24 11:56:30;;;;;;;4.75;2.80;;;;;;;;;;4992478;28;20614;-57
2022/07/24 11:58:56;;;;;;;4.78;3.72;;;;;;;;;;4977254;28;20031;-56
2022/07/24 12:01:23;;;;;;;4.63;3.47;;;;;;;;;;4987282;28;20044;-58
2022/07/24 12:03:53;;;;;;;5.80;3.40;;;;;;;;;;4992513;28;20023;-57
2022/07/24 12:06:20;;;;;;;3.85;3.45;;;;;;;;;;4992484;28;20042;-55
2022/07/24 12:08:48;;;;;;;6.60;3.60;;;;;;;;;;4981465;28;20479;-56
2022/07/24 12:11:14;;;;;;;;;;;;;;;;;;4992595;28;20506;-57
2022/07/24 12:13:42;;;;;;;5.07;3.55;;;;;;;;;;4992495;28;19992;-57
2022/07/24 12:16:09;;;;;;;24.05;4.15;;;;;;;;;;4990695;28;20395;-56
2022/07/24 12:18:35;;;;;;;;;;;;;;;;;;4989425;28;20077;-54
2022/07/24 12:21:02;;;;;;;3.65;3.35;;;;;;;;;;4983279;28;19973;-57
2022/07/24 12:23:31;;;;;;;4.68;3.97;;;;;;;;;;4977733;28;20515;-57
2022/07/24 12:25:57;;;;;;;4.18;3.50;;;;;;;;;;4971572;28;20511;-55
2022/07/24 12:28:23;;;;;;;;;;;;;;;;;;4972808;28;20029;-57
2022/07/24 12:30:54;;;;;;;5.45;3.63;;;;;;;;;;4972648;28;19910;-54
2022/07/24 12:33:26;;;;;;;5.40;3.20;;;;;;;;;;4972813;28;20049;-57
2022/07/24 12:36:01;;;;;;;5.57;3.47;;;;;;;;;;4972827;28;20110;-57
2022/07/24 12:38:33;;;;;;;3.45;3.15;;;;;;;;;;4979657;28;20517;-55
2022/07/24 12:41:05;;;;;;;7.32;3.15;;;;;;;;;;4975999;28;20057;-56
2022/07/24 12:43:32;;;;;;;6.68;3.95;;;;;;;;;;4992370;28;20089;-54
2022/07/24 12:46:08;;;;;;;6.65;4.28;;;;;;;;;;4994814;28;20506;-54
2022/07/24 12:48:34;;;;;;;7.43;3.40;;;;;;;;;;4995858;28;20030;-56
2022/07/24 12:51:00;;;;;;;;;;;;;;;;;;4988819;28;20062;-55
2022/07/24 12:53:28;;;;;;;5.57;3.85;;;;;;;;;;4995367;28;20358;-54
2022/07/24 12:56:24;;;;;;;5.40;3.25;;;;;;;;;;5005235;28;20058;-56
2022/07/24 12:58:50;;;;;;;6.97;4.03;;;;;;;;;;4979752;28;20045;-54
2022/07/24 13:01:16;;;;;;;;;;;;;;;;;;4993925;28;20042;-52
2022/07/24 13:03:43;;;;;;;5.75;3.92;;;;;;;;;;4987300;28;19918;-56
2022/07/24 13:06:10;;;;;;;5.15;3.42;;;;;;;;;;4976325;28;20161;-54
2022/07/24 13:08:36;;;;;;;4.57;3.08;;;;;;;;;;4975861;28;20035;-57
2022/07/24 13:11:05;;;;;;;;;;;;;;;;;;4990868;28;20038;-55
2022/07/24 13:13:33;;;;;;;5.20;3.83;;;;;;;;;;4995477;28;19906;-59
2022/07/24 13:15:59;;;;;;;7.57;3.97;;;;;;;;;;5000740;28;20030;-59
2022/07/24 13:18:25;;;;;;;5.55;3.35;;;;;;;;;;4997556;28;20046;-56
2022/07/24 13:20:51;;;;;;;;;;;;;;;;;;4988765;28;20049;-59
2022/07/24 13:23:18;;;;;;;6.65;3.72;;;;;;;;;;4986495;28;19910;-57
2022/07/24 13:25:45;;;;;;;5.38;3.67;;;;;;;;;;4975927;28;20023;-56
2022/07/24 13:28:11;;;;;;;8.25;5.18;;;;;;;;;;4975812;28;20106;-57
2022/07/24 13:30:37;;;;;;;5.50;3.53;;;;;;;;;;4986131;28;20398;-58
2022/07/24 13:33:03;;;;;;;5.78;3.38;;;;;;;;;;4994028;28;20034;-57
2022/07/24 13:35:30;;;;;;;5.22;3.00;;;;;;;;;;4995036;28;20077;-57
2022/07/24 13:37:56;;;;;;;5.13;3.60;;;;;;;;;;4985710;28;20439;-58
2022/07/24 13:40:22;;;;;;;5.30;3.58;;;;;;;;;;4975227;28;20510;-58
2022/07/24 13:42:48;;;;;;;3.83;3.40;;;;;;;;;;4975495;28;20027;-57
2022/07/24 13:45:14;;;;;;;4.57;3.38;;;;;;;;;;4975514;28;20026;-58
2022/07/24 13:47:41;;;;;;;4.20;3.30;;;;;;;;;;4979064;28;20038;-58
2022/07/24 13:50:07;;;;;;;5.85;2.88;;;;;;;;;;5003360;28;20125;-59
2022/07/24 13:52:33;;;;;;;3.63;3.08;;;;;;;;;;5004284;28;20105;-58
2022/07/24 13:55:00;;;;;;;3.72;2.72;;;;;;;;;;4979958;28;20110;-59
2022/07/24 13:57:26;;;;;;;3.63;3.15;;;;;;;;;;4976595;28;20026;-57
2022/07/24 13:59:52;;;;;;;4.85;2.80;;;;;;;;;;4994261;28;20024;-59
2022/07/24 14:02:19;;;;;;;4.43;3.97;;;;;;;;;;4993287;28;20034;-59
2022/07/24 14:04:45;;;;;;;4.22;3.20;;;;;;;;;;4983496;28;20134;-59
2022/07/24 14:07:12;;;;;;;4.13;3.55;;;;;;;;;;4982727;28;20060;-58
2022/07/24 14:09:38;;;;;;;3.30;3.00;;;;;;;;;;4992764;28;20038;-59
2022/07/24 14:12:05;;;;;;;5.63;3.00;;;;;;;;;;4984707;28;20069;-59
2022/07/24 14:14:31;;;;;;;3.60;3.13;;;;;;;;;;4984475;28;20031;-59
2022/07/24 14:16:58;;;;;;;3.40;3.03;;;;;;;;;;4987364;28;20384;-60
2022/07/24 14:19:24;;;;;;;4.82;3.30;;;;;;;;;;4994037;28;20061;-59
2022/07/24 14:21:51;;;;;;;3.28;2.83;;;;;;;;;;4986318;28;20093;-58
2022/07/24 14:24:18;;;;;;;6.72;3.72;;;;;;;;;;4983872;28;20042;-57
2022/07/24 14:26:44;;;;;;;4.15;2.80;;;;;;;;;;4994217;28;20475;-59
2022/07/24 14:29:11;;;;;;;7.05;3.63;;;;;;;;;;5001405;28;20034;-59
2022/07/24 14:31:37;;;;;;;3.83;3.38;;;;;;;;;;5001673;28;20057;-59
2022/07/24 14:34:04;;;;;;;3.75;3.45;;;;;;;;;;5001801;28;20038;-59
2022/07/24 14:36:30;;;;;;;8.23;3.95;;;;;;;;;;4996780;28;20152;-59
2022/07/24 14:38:56;;;;;;;6.95;3.40;;;;;;;;;;4995430;28;20038;-58